createdAt,value
2019-03-30T00:00:31.942Z,100627.77
2019-03-30T00:03:01.314Z,100623.06
2019-03-30T00:05:30.672Z,100620.42
2019-03-30T00:08:00.055Z,100621.00
2019-03-30T00:10:29.411Z,100616.30
2019-03-30T00:12:58.791Z,100613.06
2019-03-30T00:15:28.161Z,100607.31
2019-03-30T00:17:57.532Z,100606.02
2019-03-30T00:20:27.133Z,100603.00
2019-03-30T00:22:56.538Z,100602.24
2019-03-30T00:25:25.933Z,100597.02
2019-03-30T00:27:55.278Z,100593.76
2019-03-30T00:30:24.635Z,100589.23
2019-03-30T00:32:54.017Z,100584.61
2019-03-30T00:35:23.381Z,100582.90
2019-03-30T00:37:52.751Z,100585.26
2019-03-30T00:40:22.129Z,100580.15
2019-03-30T00:42:51.768Z,100581.98
2019-03-30T00:45:21.137Z,100584.22
2019-03-30T00:47:50.808Z,100586.45
2019-03-30T00:50:20.170Z,100580.84
2019-03-30T00:52:49.550Z,100582.41
2019-03-30T00:55:18.906Z,100581.55
2019-03-30T00:57:48.273Z,100574.69
2019-03-30T01:00:18.243Z,100581.42
2019-03-30T01:02:47.617Z,100577.85
2019-03-30T01:05:16.976Z,100575.15
2019-03-30T01:07:46.350Z,100563.56
2019-03-30T01:10:15.856Z,100564.39
2019-03-30T01:12:45.230Z,100567.47
2019-03-30T01:15:14.733Z,100564.19
2019-03-30T01:17:44.100Z,100560.05
2019-03-30T01:20:14.257Z,100564.92
2019-03-30T01:22:43.648Z,100558.42
2019-03-30T01:25:13.079Z,100554.02
2019-03-30T01:27:42.527Z,100552.56
2019-03-30T01:30:22.941Z,100554.92
2019-03-30T01:32:44.033Z,100550.34
2019-03-30T01:35:13.418Z,100549.34
2019-03-30T01:37:42.847Z,100546.84
2019-03-30T01:40:12.418Z,100550.64
2019-03-30T01:42:44.942Z,100540.23
2019-03-30T01:45:14.544Z,100543.20
2019-03-30T01:47:43.992Z,100540.99
2019-03-30T01:50:17.523Z,100535.27
2019-03-30T01:52:45.236Z,100530.69
2019-03-30T01:55:14.597Z,100533.77
2019-03-30T01:57:44.290Z,100532.56
2019-03-30T02:00:17.098Z,100530.06
2019-03-30T02:02:46.621Z,100528.13
2019-03-30T02:05:16.048Z,100521.88
2019-03-30T02:07:45.422Z,100524.83
2019-03-30T02:10:17.856Z,100519.63
2019-03-30T02:12:47.222Z,100518.86
2019-03-30T02:15:16.824Z,100515.28
2019-03-30T02:17:46.190Z,100508.73
2019-03-30T02:20:43.433Z,100506.19
2019-03-30T02:23:13.035Z,100506.77
2019-03-30T02:25:42.840Z,100507.38
2019-03-30T02:28:12.354Z,100508.31
2019-03-30T02:30:42.055Z,100507.09
2019-03-30T02:33:11.437Z,100503.74
2019-03-30T02:35:41.157Z,100505.81
2019-03-30T02:38:10.527Z,100501.22
2019-03-30T02:40:39.889Z,100502.26
2019-03-30T02:43:09.321Z,100501.75
2019-03-30T02:45:38.697Z,100494.52
2019-03-30T02:48:08.081Z,100497.23
2019-03-30T02:50:49.241Z,100496.09
2019-03-30T02:53:08.767Z,100494.95
2019-03-30T02:55:38.130Z,100487.75
2019-03-30T02:58:07.507Z,100486.69
2019-03-30T03:00:37.342Z,100482.48
2019-03-30T03:03:06.696Z,100485.15
2019-03-30T03:05:36.156Z,100486.36
2019-03-30T03:08:05.567Z,100480.20
2019-03-30T03:10:34.955Z,100484.64
2019-03-30T03:13:04.311Z,100481.93
2019-03-30T03:15:33.682Z,100482.38
2019-03-30T03:18:03.061Z,100480.06
2019-03-30T03:20:32.439Z,100479.20
2019-03-30T03:23:01.799Z,100474.30
2019-03-30T03:25:31.171Z,100476.41
2019-03-30T03:28:00.549Z,100475.49
2019-03-30T03:30:30.256Z,100477.78
2019-03-30T03:32:59.961Z,100472.72
2019-03-30T03:35:29.667Z,100473.78
2019-03-30T03:37:59.113Z,100468.23
2019-03-30T03:40:28.626Z,100465.92
2019-03-30T03:42:58.061Z,100463.60
2019-03-30T03:45:27.436Z,100461.54
2019-03-30T03:47:57.027Z,100460.34
2019-03-30T03:50:41.147Z,100459.95
2019-03-30T03:53:13.457Z,100458.96
2019-03-30T03:55:43.035Z,100462.78
2019-03-30T03:58:12.664Z,100461.11
2019-03-30T04:00:43.421Z,100457.98
2019-03-30T04:03:16.134Z,100456.26
2019-03-30T04:05:48.017Z,100458.83
2019-03-30T04:08:17.689Z,100457.97
2019-03-30T04:10:48.982Z,100453.03
2019-03-30T04:13:18.809Z,100444.73
2019-03-30T04:15:48.461Z,100433.95
2019-03-30T04:18:18.786Z,100437.80
2019-03-30T04:20:48.170Z,100431.60
2019-03-30T04:23:17.527Z,100428.03
2019-03-30T04:25:47.164Z,100418.30
2019-03-30T04:28:16.599Z,100421.28
2019-03-30T04:30:45.975Z,100420.14
2019-03-30T04:33:15.349Z,100418.23
2019-03-30T04:35:44.718Z,100414.83
2019-03-30T04:38:14.661Z,100412.88
2019-03-30T04:40:44.140Z,100412.27
2019-03-30T04:43:13.502Z,100409.56
2019-03-30T04:45:43.138Z,100407.02
2019-03-30T04:48:12.520Z,100405.66
2019-03-30T04:50:41.891Z,100410.35
2019-03-30T04:53:11.273Z,100414.64
2019-03-30T04:55:40.637Z,100407.70
2019-03-30T04:58:09.998Z,100407.69
2019-03-30T05:00:39.384Z,100404.17
2019-03-30T05:03:08.762Z,100404.15
2019-03-30T05:05:38.127Z,100406.30
2019-03-30T05:08:07.551Z,100403.15
2019-03-30T05:10:36.913Z,100403.95
2019-03-30T05:13:06.345Z,100400.13
2019-03-30T05:15:35.655Z,100406.28
2019-03-30T05:18:05.031Z,100402.62
2019-03-30T05:20:34.397Z,100398.78
2019-03-30T05:23:03.769Z,100401.05
2019-03-30T05:25:33.140Z,100399.60
2019-03-30T05:28:02.516Z,100396.59
2019-03-30T05:30:31.886Z,100403.63
2019-03-30T05:33:06.047Z,100400.06
2019-03-30T05:35:32.347Z,100401.55
2019-03-30T05:38:01.733Z,100403.72
2019-03-30T05:40:31.082Z,100402.68
2019-03-30T05:43:00.458Z,100404.27
2019-03-30T05:45:30.203Z,100406.45
2019-03-30T05:47:59.583Z,100403.66
2019-03-30T05:50:28.946Z,100407.25
2019-03-30T05:52:58.334Z,100405.06
2019-03-30T05:55:27.706Z,100407.47
2019-03-30T05:57:57.086Z,100407.41
2019-03-30T06:00:26.454Z,100404.65
2019-03-30T06:02:55.824Z,100408.69
2019-03-30T06:05:25.193Z,100404.13
2019-03-30T06:07:54.571Z,100407.80
2019-03-30T06:10:24.174Z,100406.94
2019-03-30T06:12:53.577Z,100401.28
2019-03-30T06:15:22.924Z,100402.47
2019-03-30T06:17:52.301Z,100395.39
2019-03-30T06:20:21.669Z,100399.57
2019-03-30T06:22:51.334Z,100396.55
2019-03-30T06:25:20.698Z,100393.16
2019-03-30T06:27:50.158Z,100395.27
2019-03-30T06:30:26.694Z,100394.98
2019-03-30T06:32:56.079Z,100393.95
2019-03-30T06:35:25.444Z,100386.86
2019-03-30T06:37:54.811Z,100381.11
2019-03-30T06:40:24.252Z,100376.02
2019-03-30T06:42:53.705Z,100380.86
2019-03-30T06:45:23.053Z,100382.47
2019-03-30T06:47:52.431Z,100377.98
2019-03-30T06:50:21.817Z,100381.22
2019-03-30T06:52:58.038Z,100379.16
2019-03-30T06:55:22.454Z,100374.91
2019-03-30T06:57:51.823Z,100380.61
2019-03-30T07:00:33.286Z,100376.05
2019-03-30T07:03:07.770Z,100373.85
2019-03-30T07:05:42.453Z,100377.17
2019-03-30T07:08:17.009Z,100375.64
2019-03-30T07:10:47.601Z,100378.08
2019-03-30T07:13:17.567Z,100376.23
2019-03-30T07:15:49.441Z,100379.66
2019-03-30T07:18:19.991Z,100377.57
2019-03-30T07:20:49.377Z,100371.80
2019-03-30T07:23:19.012Z,100374.01
2019-03-30T07:25:48.634Z,100370.97
2019-03-30T07:28:18.149Z,100370.37
2019-03-30T07:30:47.602Z,100376.55
2019-03-30T07:33:16.980Z,100373.12
2019-03-30T07:35:46.387Z,100375.92
2019-03-30T07:38:15.748Z,100376.73
2019-03-30T07:40:45.135Z,100374.61
2019-03-30T07:43:14.501Z,100363.69
2019-03-30T07:45:43.880Z,100363.81
2019-03-30T07:48:13.499Z,100369.11
2019-03-30T07:50:42.891Z,100371.90
2019-03-30T07:53:25.560Z,100370.48
2019-03-30T07:55:43.363Z,100357.00
2019-03-30T07:58:12.753Z,100374.28
2019-03-30T08:00:42.127Z,100345.37
2019-03-30T08:03:11.492Z,100374.44
2019-03-30T08:05:41.289Z,100376.75
2019-03-30T08:08:10.658Z,100370.39
2019-03-30T08:10:40.041Z,100370.40
2019-03-30T08:13:09.645Z,100373.44
2019-03-30T08:15:39.030Z,100376.05
2019-03-30T08:18:08.394Z,100369.37
2019-03-30T08:20:37.782Z,100378.77
2019-03-30T08:23:07.152Z,100379.25
2019-03-30T08:25:36.531Z,100380.72
2019-03-30T08:28:05.903Z,100383.47
2019-03-30T08:30:35.288Z,100386.23
2019-03-30T08:33:04.668Z,100382.32
2019-03-30T08:35:34.065Z,100381.55
2019-03-30T08:38:03.538Z,100386.67
2019-03-30T08:40:33.129Z,100385.99
2019-03-30T08:43:02.673Z,100384.12
2019-03-30T08:45:32.035Z,100392.52
2019-03-30T08:48:01.407Z,100385.39
2019-03-30T08:50:30.798Z,100390.62
2019-03-30T08:53:00.509Z,100387.09
2019-03-30T08:55:30.628Z,100384.74
2019-03-30T08:58:00.564Z,100392.22
2019-03-30T09:00:41.638Z,100391.38
2019-03-30T09:03:11.422Z,100384.05
2019-03-30T09:05:41.176Z,100389.31
2019-03-30T09:08:10.610Z,100388.15
2019-03-30T09:10:39.998Z,100395.77
2019-03-30T09:13:09.360Z,100395.59
2019-03-30T09:15:39.015Z,100383.78
2019-03-30T09:18:08.409Z,100381.45
2019-03-30T09:20:37.772Z,100384.53
2019-03-30T09:23:07.144Z,100375.45
2019-03-30T09:25:36.534Z,100383.59
2019-03-30T09:28:05.982Z,100381.89
2019-03-30T09:30:35.429Z,100383.84
2019-03-30T09:33:04.806Z,100383.63
2019-03-30T09:35:34.185Z,100378.91
2019-03-30T09:38:03.555Z,100384.77
2019-03-30T09:40:32.921Z,100378.72
2019-03-30T09:43:02.302Z,100372.27
2019-03-30T09:45:31.681Z,100371.17
2019-03-30T09:48:01.231Z,100370.70
2019-03-30T09:50:30.845Z,100369.47
2019-03-30T09:53:00.220Z,100361.93
2019-03-30T09:55:29.585Z,100351.33
2019-03-30T09:57:59.223Z,100356.19
2019-03-30T10:00:48.176Z,100361.11
2019-03-30T10:03:17.547Z,100346.48
2019-03-30T10:05:46.916Z,100353.84
2019-03-30T10:08:16.629Z,100351.95
2019-03-30T10:10:46.977Z,100360.86
2019-03-30T10:13:16.610Z,100346.11
2019-03-30T10:15:45.991Z,100354.33
2019-03-30T10:18:15.367Z,100353.26
2019-03-30T10:20:44.735Z,100356.69
2019-03-30T10:23:14.359Z,100347.67
2019-03-30T10:25:43.760Z,100356.17
2019-03-30T10:28:13.144Z,100353.91
2019-03-30T10:30:42.840Z,100356.05
2019-03-30T10:33:12.645Z,100358.30
2019-03-30T10:35:41.971Z,100355.57
2019-03-30T10:38:12.188Z,100354.98
2019-03-30T10:40:41.559Z,100354.48
2019-03-30T10:43:10.949Z,100356.86
2019-03-30T10:45:40.322Z,100356.09
2019-03-30T10:48:09.707Z,100349.45
2019-03-30T10:50:39.074Z,100349.97
2019-03-30T10:53:08.669Z,100345.79
2019-03-30T10:55:38.051Z,100345.46
2019-03-30T10:58:07.444Z,100352.84
2019-03-30T11:00:41.502Z,100342.83
2019-03-30T11:03:11.120Z,100346.36
2019-03-30T11:05:40.488Z,100337.16
2019-03-30T11:08:10.111Z,100340.56
2019-03-30T11:10:39.986Z,100339.27
2019-03-30T11:13:09.373Z,100337.27
2019-03-30T11:15:38.977Z,100340.82
2019-03-30T11:18:08.360Z,100337.69
2019-03-30T11:20:37.734Z,100340.47
2019-03-30T11:23:07.139Z,100333.74
2019-03-30T11:25:36.507Z,100324.77
2019-03-30T11:28:05.878Z,100331.99
2019-03-30T11:30:35.259Z,100329.55
2019-03-30T11:33:04.744Z,100331.92
2019-03-30T11:35:34.109Z,100327.27
2019-03-30T11:38:03.494Z,100321.42
2019-03-30T11:40:32.868Z,100321.58
2019-03-30T11:43:02.253Z,100319.00
2019-03-30T11:45:31.863Z,100319.37
2019-03-30T11:48:01.322Z,100314.36
2019-03-30T11:50:30.691Z,100311.72
2019-03-30T11:53:00.310Z,100309.55
2019-03-30T11:55:29.684Z,100305.42
2019-03-30T11:57:59.091Z,100302.05
2019-03-30T12:00:28.462Z,100298.63
2019-03-30T12:02:57.905Z,100303.12
2019-03-30T12:05:27.246Z,100304.40
2019-03-30T12:07:56.999Z,100296.77
2019-03-30T12:10:26.379Z,100291.08
2019-03-30T12:12:55.770Z,100289.91
2019-03-30T12:15:25.139Z,100287.02
2019-03-30T12:17:54.527Z,100288.49
2019-03-30T12:20:23.896Z,100282.97
2019-03-30T12:22:53.270Z,100286.39
2019-03-30T12:25:34.847Z,100266.16
2019-03-30T12:27:53.771Z,100267.87
2019-03-30T12:30:23.144Z,100264.30
2019-03-30T12:32:52.519Z,100270.38
2019-03-30T12:35:21.901Z,100272.16
2019-03-30T12:37:51.611Z,100263.44
2019-03-30T12:40:20.995Z,100266.07
2019-03-30T12:42:50.377Z,100260.63
2019-03-30T12:45:19.759Z,100260.95
2019-03-30T12:47:49.197Z,100260.33
2019-03-30T12:50:18.910Z,100253.99
2019-03-30T12:52:48.278Z,100254.39
2019-03-30T12:55:17.663Z,100252.20
2019-03-30T12:57:47.040Z,100249.63
2019-03-30T13:00:16.969Z,100241.66
2019-03-30T13:02:46.340Z,100244.25
2019-03-30T13:05:15.800Z,100242.45
2019-03-30T13:07:45.417Z,100237.84
2019-03-30T13:10:15.002Z,100240.59
2019-03-30T13:12:44.377Z,100237.95
2019-03-30T13:15:13.913Z,100237.34
2019-03-30T13:17:43.517Z,100227.31
2019-03-30T13:20:13.414Z,100234.03
2019-03-30T13:22:42.786Z,100226.63
2019-03-30T13:25:12.414Z,100223.13
2019-03-30T13:27:42.105Z,100223.73
2019-03-30T13:30:12.693Z,100223.37
2019-03-30T13:32:43.612Z,100229.19
2019-03-30T13:35:12.996Z,100222.66
2019-03-30T13:37:42.371Z,100224.97
2019-03-30T13:40:12.236Z,100223.30
2019-03-30T13:42:44.515Z,100224.26
2019-03-30T13:45:14.436Z,100221.30
2019-03-30T13:47:44.111Z,100223.01
2019-03-30T13:50:13.903Z,100222.50
2019-03-30T13:52:43.279Z,100220.18
2019-03-30T13:55:12.897Z,100216.06
2019-03-30T13:57:42.270Z,100221.80
2019-03-30T14:00:12.761Z,100218.21
2019-03-30T14:02:43.987Z,100212.23
2019-03-30T14:05:13.393Z,100217.76
2019-03-30T14:07:42.768Z,100211.09
2019-03-30T14:10:14.448Z,100204.92
2019-03-30T14:12:43.834Z,100206.33
2019-03-30T14:15:13.203Z,100207.34
2019-03-30T14:17:42.588Z,100211.61
2019-03-30T14:20:12.347Z,100206.78
2019-03-30T14:22:41.739Z,100206.89
2019-03-30T14:25:11.115Z,100208.02
2019-03-30T14:27:40.509Z,100203.70
2019-03-30T14:30:12.295Z,100206.34
2019-03-30T14:32:41.681Z,100207.97
2019-03-30T14:35:11.454Z,100200.55
2019-03-30T14:37:40.832Z,100193.06
2019-03-30T14:40:11.013Z,100196.91
2019-03-30T14:42:40.396Z,100191.11
2019-03-30T14:45:10.472Z,100186.53
2019-03-30T14:47:39.931Z,100189.30
2019-03-30T14:50:10.457Z,100186.30
2019-03-30T14:52:39.841Z,100186.23
2019-03-30T14:55:09.927Z,100189.81
2019-03-30T14:57:39.385Z,100187.39
2019-03-30T15:00:12.502Z,100188.52
2019-03-30T15:02:41.948Z,100190.59
2019-03-30T15:05:11.762Z,100193.19
2019-03-30T15:07:41.147Z,100190.50
2019-03-30T15:10:11.128Z,100186.77
2019-03-30T15:12:40.587Z,100184.66
2019-03-30T15:15:11.079Z,100180.63
2019-03-30T15:17:41.283Z,100177.88
2019-03-30T15:20:12.335Z,100178.10
2019-03-30T15:22:41.716Z,100177.16
2019-03-30T15:25:11.983Z,100177.14
2019-03-30T15:27:41.362Z,100176.01
2019-03-30T15:30:12.257Z,100171.66
2019-03-30T15:32:44.289Z,100171.08
2019-03-30T15:35:13.752Z,100165.66
2019-03-30T15:37:43.112Z,100167.03
2019-03-30T15:40:12.630Z,100166.61
2019-03-30T15:42:42.014Z,100164.50
2019-03-30T15:45:12.820Z,100168.44
2019-03-30T15:47:42.170Z,100165.31
2019-03-30T15:50:12.643Z,100157.95
2019-03-30T15:52:42.014Z,100157.46
2019-03-30T15:55:11.611Z,100161.05
2019-03-30T15:57:40.985Z,100162.72
2019-03-30T16:00:14.507Z,100166.83
2019-03-30T16:02:43.858Z,100158.17
2019-03-30T16:05:15.424Z,100157.36
2019-03-30T16:07:44.551Z,100158.38
2019-03-30T16:10:14.586Z,100155.79
2019-03-30T16:12:43.943Z,100158.52
2019-03-30T16:15:13.731Z,100148.92
2019-03-30T16:17:43.104Z,100151.22
2019-03-30T16:20:12.624Z,100155.39
2019-03-30T16:22:41.999Z,100150.52
2019-03-30T16:25:11.524Z,100153.16
2019-03-30T16:27:40.898Z,100155.70
2019-03-30T16:30:13.284Z,100148.80
2019-03-30T16:32:43.665Z,100147.94
2019-03-30T16:35:13.116Z,100156.61
2019-03-30T16:37:42.763Z,100157.25
2019-03-30T16:40:12.554Z,100159.20
2019-03-30T16:42:41.933Z,100158.33
2019-03-30T16:45:12.161Z,100159.90
2019-03-30T16:47:41.605Z,100158.34
2019-03-30T16:50:11.491Z,100161.00
2019-03-30T16:52:41.403Z,100161.08
2019-03-30T16:55:11.068Z,100161.30
2019-03-30T16:57:43.498Z,100159.36
2019-03-30T17:00:12.482Z,100161.72
2019-03-30T17:02:41.921Z,100159.59
2019-03-30T17:05:12.469Z,100162.20
2019-03-30T17:07:41.841Z,100161.45
2019-03-30T17:10:13.110Z,100160.16
2019-03-30T17:12:42.476Z,100161.09
2019-03-30T17:15:12.798Z,100159.45
2019-03-30T17:17:42.174Z,100155.80
2019-03-30T17:20:12.012Z,100158.33
2019-03-30T17:22:41.891Z,100156.17
2019-03-30T17:25:12.007Z,100160.38
2019-03-30T17:27:41.382Z,100155.66
2019-03-30T17:30:12.079Z,100157.27
2019-03-30T17:32:41.785Z,100155.58
2019-03-30T17:35:11.378Z,100156.41
2019-03-30T17:37:40.754Z,100156.16
2019-03-30T17:40:11.834Z,100153.73
2019-03-30T17:42:41.232Z,100147.66
2019-03-30T17:45:11.762Z,100154.85
2019-03-30T17:47:41.140Z,100155.16
2019-03-30T17:50:11.822Z,100149.96
2019-03-30T17:52:41.280Z,100153.39
2019-03-30T17:55:11.198Z,100153.55
2019-03-30T17:57:40.578Z,100156.81
2019-03-30T18:00:14.272Z,100155.73
2019-03-30T18:02:43.653Z,100146.83
2019-03-30T18:05:13.330Z,100160.23
2019-03-30T18:07:42.804Z,100163.21
2019-03-30T18:10:13.049Z,100164.13
2019-03-30T18:12:45.522Z,100162.09
2019-03-30T18:15:15.281Z,100160.14
2019-03-30T18:17:44.679Z,100167.58
2019-03-30T18:20:14.964Z,100170.70
2019-03-30T18:22:44.350Z,100175.58
2019-03-30T18:25:14.087Z,100172.17
2019-03-30T18:27:43.605Z,100175.14
2019-03-30T18:30:13.497Z,100171.63
2019-03-30T18:32:43.285Z,100177.25
2019-03-30T18:35:13.139Z,100173.84
2019-03-30T18:37:42.848Z,100184.16
2019-03-30T18:40:16.842Z,100184.00
2019-03-30T18:42:47.313Z,100186.37
2019-03-30T18:45:28.863Z,100185.79
2019-03-30T18:48:13.934Z,100190.73
2019-03-30T18:50:45.329Z,100192.20
2019-03-30T18:53:16.524Z,100194.78
2019-03-30T18:55:46.103Z,100199.95
2019-03-30T18:58:15.443Z,100196.80
2019-03-30T19:00:44.822Z,100200.33
2019-03-30T19:03:14.210Z,100205.48
2019-03-30T19:05:43.580Z,100208.72
2019-03-30T19:08:12.962Z,100205.84
2019-03-30T19:10:42.689Z,100211.53
2019-03-30T19:13:12.043Z,100207.44
2019-03-30T19:15:41.418Z,100206.30
2019-03-30T19:18:10.803Z,100209.02
2019-03-30T19:20:40.185Z,100213.59
2019-03-30T19:23:09.822Z,100211.66
2019-03-30T19:25:39.192Z,100218.05
2019-03-30T19:28:08.847Z,100223.37
2019-03-30T19:30:38.249Z,100222.58
2019-03-30T19:33:07.623Z,100222.48
2019-03-30T19:35:36.992Z,100220.63
2019-03-30T19:38:06.382Z,100226.17
2019-03-30T19:40:36.065Z,100222.36
2019-03-30T19:43:05.455Z,100221.75
2019-03-30T19:45:34.831Z,100229.84
2019-03-30T19:48:04.409Z,100223.69
2019-03-30T19:50:34.777Z,100228.56
2019-03-30T19:53:05.093Z,100225.50
2019-03-30T19:55:34.643Z,100224.35
2019-03-30T19:58:04.083Z,100223.86
2019-03-30T20:00:33.468Z,100222.67
2019-03-30T20:03:02.867Z,100220.88
2019-03-30T20:05:32.230Z,100222.61
2019-03-30T20:08:11.948Z,100225.01
2019-03-30T20:10:32.714Z,100223.59
2019-03-30T20:13:02.115Z,100225.25
2019-03-30T20:15:31.636Z,100229.47
2019-03-30T20:18:01.018Z,100234.06
2019-03-30T20:20:30.393Z,100230.95
2019-03-30T20:23:00.407Z,100228.88
2019-03-30T20:25:29.849Z,100232.92
2019-03-30T20:27:59.237Z,100233.33
2019-03-30T20:30:28.626Z,100232.77
2019-03-30T20:32:58.021Z,100236.59
2019-03-30T20:35:27.388Z,100234.00
2019-03-30T20:37:56.939Z,100231.66
2019-03-30T20:40:26.315Z,100235.16
2019-03-30T20:42:55.975Z,100236.23
2019-03-30T20:45:25.642Z,100238.80
2019-03-30T20:47:55.020Z,100237.47
2019-03-30T20:50:24.404Z,100237.98
2019-03-30T20:52:53.789Z,100234.63
2019-03-30T20:55:23.177Z,100236.61
2019-03-30T20:57:52.550Z,100235.30
2019-03-30T21:00:22.476Z,100234.11
2019-03-30T21:02:51.841Z,100237.78
2019-03-30T21:05:21.221Z,100235.25
2019-03-30T21:07:50.666Z,100236.17
2019-03-30T21:10:20.530Z,100232.66
2019-03-30T21:12:49.927Z,100234.33
2019-03-30T21:15:19.306Z,100234.84
2019-03-30T21:17:48.678Z,100235.38
2019-03-30T21:20:18.205Z,100232.97
2019-03-30T21:22:47.576Z,100231.14
2019-03-30T21:25:17.136Z,100235.09
2019-03-30T21:27:46.807Z,100232.27
2019-03-30T21:30:23.072Z,100236.05
2019-03-30T21:32:52.447Z,100235.80
2019-03-30T21:35:21.840Z,100234.13
2019-03-30T21:37:51.218Z,100232.91
2019-03-30T21:40:20.882Z,100233.67
2019-03-30T21:42:50.253Z,100228.66
2019-03-30T21:45:19.647Z,100228.55
2019-03-30T21:47:49.249Z,100227.88
2019-03-30T21:50:18.646Z,100230.35
2019-03-30T21:52:48.021Z,100230.80
2019-03-30T21:55:17.422Z,100231.38
2019-03-30T21:57:46.797Z,100234.45
2019-03-30T22:00:35.223Z,100243.02
2019-03-30T22:03:05.343Z,100238.70
2019-03-30T22:05:36.135Z,100234.52
2019-03-30T22:08:07.072Z,100234.47
2019-03-30T22:10:36.466Z,100237.06
2019-03-30T22:13:07.182Z,100234.41
2019-03-30T22:15:36.572Z,100235.75
2019-03-30T22:18:06.748Z,100236.78
2019-03-30T22:20:36.212Z,100238.44
2019-03-30T22:23:05.672Z,100241.59
2019-03-30T22:25:35.057Z,100250.91
2019-03-30T22:28:04.728Z,100253.97
2019-03-30T22:30:34.112Z,100252.05
2019-03-30T22:33:03.500Z,100260.36
2019-03-30T22:35:33.221Z,100257.48
2019-03-30T22:38:02.610Z,100260.25
2019-03-30T22:40:32.009Z,100257.30
2019-03-30T22:43:01.436Z,100255.19
2019-03-30T22:45:30.796Z,100254.34
2019-03-30T22:48:00.174Z,100256.98
2019-03-30T22:50:29.567Z,100258.23
2019-03-30T22:52:58.946Z,100266.87
2019-03-30T22:55:28.328Z,100261.69
2019-03-30T22:57:58.041Z,100256.27
2019-03-30T23:00:38.963Z,100256.53
2019-03-30T23:03:09.339Z,100256.27
2019-03-30T23:05:38.730Z,100256.48
2019-03-30T23:08:08.460Z,100260.05
2019-03-30T23:10:37.872Z,100255.02
2019-03-30T23:13:07.250Z,100253.56
2019-03-30T23:15:36.641Z,100251.44
2019-03-30T23:18:06.359Z,100252.23
2019-03-30T23:20:35.738Z,100248.31
2019-03-30T23:23:05.127Z,100252.52
2019-03-30T23:25:34.501Z,100250.11
2019-03-30T23:28:03.902Z,100240.63
2019-03-30T23:30:33.277Z,100241.79
2019-03-30T23:33:02.915Z,100240.28
2019-03-30T23:35:32.278Z,100240.09
2019-03-30T23:38:01.710Z,100239.39
2019-03-30T23:40:31.085Z,100235.83
2019-03-30T23:43:00.533Z,100237.89
2019-03-30T23:45:29.877Z,100234.08
2019-03-30T23:47:59.231Z,100230.80
2019-03-30T23:50:28.608Z,100233.31
2019-03-30T23:52:58.001Z,100231.61
2019-03-30T23:55:27.385Z,100230.14
2019-03-30T23:57:57.099Z,100230.70
